sensor_id;sensor_type;location;lat;lon;timestamp;temperature;humidity
21891;DHT22;11110;52.386;16.940;2022-07-21T00:01:00;36.30;35.80
21891;DHT22;11110;52.386;16.940;2022-07-21T00:03:29;36.20;35.70
21891;DHT22;11110;52.386;16.940;2022-07-21T00:05:59;36.20;36.00
21891;DHT22;11110;52.386;16.940;2022-07-21T00:08:27;36.30;35.90
21891;DHT22;11110;52.386;16.940;2022-07-21T00:10:57;36.20;36.20
21891;DHT22;11110;52.386;16.940;2022-07-21T00:13:25;36.20;36.30
21891;DHT22;11110;52.386;16.940;2022-07-21T00:15:54;36.10;35.80
21891;DHT22;11110;52.386;16.940;2022-07-21T00:18:24;36.10;35.80
21891;DHT22;11110;52.386;16.940;2022-07-21T00:20:56;36.10;35.80
21891;DHT22;11110;52.386;16.940;2022-07-21T00:23:26;36.10;35.90
21891;DHT22;11110;52.386;16.940;2022-07-21T00:25:55;36.00;36.00
21891;DHT22;11110;52.386;16.940;2022-07-21T00:28:23;36.00;36.30
21891;DHT22;11110;52.386;16.940;2022-07-21T00:30:51;36.00;36.40
21891;DHT22;11110;52.386;16.940;2022-07-21T00:33:20;36.00;36.40
21891;DHT22;11110;52.386;16.940;2022-07-21T00:35:48;36.00;36.30
21891;DHT22;11110;52.386;16.940;2022-07-21T00:38:17;35.90;36.00
21891;DHT22;11110;52.386;16.940;2022-07-21T00:40:47;35.90;36.10
21891;DHT22;11110;52.386;16.940;2022-07-21T00:43:15;35.90;36.30
21891;DHT22;11110;52.386;16.940;2022-07-21T00:45:43;35.90;36.60
21891;DHT22;11110;52.386;16.940;2022-07-21T00:48:12;35.90;36.60
21891;DHT22;11110;52.386;16.940;2022-07-21T00:50:40;35.90;36.90
21891;DHT22;11110;52.386;16.940;2022-07-21T00:53:09;35.80;36.70
21891;DHT22;11110;52.386;16.940;2022-07-21T00:55:37;35.80;36.80
21891;DHT22;11110;52.386;16.940;2022-07-21T00:58:11;35.80;36.80
21891;DHT22;11110;52.386;16.940;2022-07-21T01:00:40;35.80;36.60
21891;DHT22;11110;52.386;16.940;2022-07-21T01:03:08;35.70;36.60
21891;DHT22;11110;52.386;16.940;2022-07-21T01:05:37;35.70;36.90
21891;DHT22;11110;52.386;16.940;2022-07-21T01:08:06;35.70;36.90
21891;DHT22;11110;52.386;16.940;2022-07-21T01:10:35;35.60;37.10
21891;DHT22;11110;52.386;16.940;2022-07-21T01:13:03;35.60;37.30
21891;DHT22;11110;52.386;16.940;2022-07-21T01:15:34;35.60;37.20
21891;DHT22;11110;52.386;16.940;2022-07-21T01:18:03;35.60;37.80
21891;DHT22;11110;52.386;16.940;2022-07-21T01:20:34;35.50;38.10
21891;DHT22;11110;52.386;16.940;2022-07-21T01:23:04;35.50;38.00
21891;DHT22;11110;52.386;16.940;2022-07-21T01:25:33;35.50;37.80
21891;DHT22;11110;52.386;16.940;2022-07-21T01:28:01;35.40;37.60
21891;DHT22;11110;52.386;16.940;2022-07-21T01:30:30;35.40;38.00
21891;DHT22;11110;52.386;16.940;2022-07-21T01:32:58;35.40;38.40
21891;DHT22;11110;52.386;16.940;2022-07-21T01:35:26;35.40;38.50
21891;DHT22;11110;52.386;16.940;2022-07-21T01:37:55;35.30;38.10
21891;DHT22;11110;52.386;16.940;2022-07-21T01:40:24;35.30;38.10
21891;DHT22;11110;52.386;16.940;2022-07-21T01:43:10;35.20;38.30
21891;DHT22;11110;52.386;16.940;2022-07-21T01:45:40;35.20;38.70
21891;DHT22;11110;52.386;16.940;2022-07-21T01:48:09;35.30;38.60
21891;DHT22;11110;52.386;16.940;2022-07-21T01:50:37;35.20;38.30
21891;DHT22;11110;52.386;16.940;2022-07-21T01:53:06;35.20;38.10
21891;DHT22;11110;52.386;16.940;2022-07-21T01:55:36;35.20;38.00
21891;DHT22;11110;52.386;16.940;2022-07-21T01:58:04;35.10;38.10
21891;DHT22;11110;52.386;16.940;2022-07-21T02:00:33;35.10;38.30
21891;DHT22;11110;52.386;16.940;2022-07-21T02:03:01;35.10;38.30
21891;DHT22;11110;52.386;16.940;2022-07-21T02:05:30;35.10;38.70
21891;DHT22;11110;52.386;16.940;2022-07-21T02:07:58;35.10;38.50
21891;DHT22;11110;52.386;16.940;2022-07-21T02:10:27;35.10;38.90
21891;DHT22;11110;52.386;16.940;2022-07-21T02:12:56;35.10;39.40
21891;DHT22;11110;52.386;16.940;2022-07-21T02:15:25;35.00;39.20
21891;DHT22;11110;52.386;16.940;2022-07-21T02:17:53;35.00;38.70
21891;DHT22;11110;52.386;16.940;2022-07-21T02:20:22;35.00;38.10
21891;DHT22;11110;52.386;16.940;2022-07-21T02:22:51;35.00;37.60
21891;DHT22;11110;52.386;16.940;2022-07-21T02:25:20;35.00;37.50
21891;DHT22;11110;52.386;16.940;2022-07-21T02:27:48;35.00;37.90
21891;DHT22;11110;52.386;16.940;2022-07-21T02:30:18;35.00;37.80
21891;DHT22;11110;52.386;16.940;2022-07-21T02:32:46;35.00;37.80
21891;DHT22;11110;52.386;16.940;2022-07-21T02:35:15;35.00;37.80
21891;DHT22;11110;52.386;16.940;2022-07-21T02:37:43;34.90;37.80
21891;DHT22;11110;52.386;16.940;2022-07-21T02:40:12;35.00;38.10
21891;DHT22;11110;52.386;16.940;2022-07-21T02:42:40;34.90;38.30
21891;DHT22;11110;52.386;16.940;2022-07-21T02:45:09;34.90;38.40
21891;DHT22;11110;52.386;16.940;2022-07-21T02:47:50;34.80;38.00
21891;DHT22;11110;52.386;16.940;2022-07-21T02:50:20;34.80;38.00
21891;DHT22;11110;52.386;16.940;2022-07-21T02:52:49;34.70;38.70
21891;DHT22;11110;52.386;16.940;2022-07-21T02:55:18;34.70;39.20
21891;DHT22;11110;52.386;16.940;2022-07-21T02:57:46;34.70;39.10
21891;DHT22;11110;52.386;16.940;2022-07-21T03:00:15;34.70;38.90
21891;DHT22;11110;52.386;16.940;2022-07-21T03:02:43;34.70;39.10
21891;DHT22;11110;52.386;16.940;2022-07-21T03:05:13;34.60;39.10
21891;DHT22;11110;52.386;16.940;2022-07-21T03:07:41;34.60;38.80
21891;DHT22;11110;52.386;16.940;2022-07-21T03:10:10;34.60;38.80
21891;DHT22;11110;52.386;16.940;2022-07-21T03:12:38;34.60;38.50
21891;DHT22;11110;52.386;16.940;2022-07-21T03:15:08;34.60;39.30
21891;DHT22;11110;52.386;16.940;2022-07-21T03:17:36;34.50;39.20
21891;DHT22;11110;52.386;16.940;2022-07-21T03:20:06;34.50;39.30
21891;DHT22;11110;52.386;16.940;2022-07-21T03:22:35;34.50;39.30
21891;DHT22;11110;52.386;16.940;2022-07-21T03:25:05;34.50;39.50
21891;DHT22;11110;52.386;16.940;2022-07-21T03:27:34;34.50;39.50
21891;DHT22;11110;52.386;16.940;2022-07-21T03:30:08;34.40;39.20
21891;DHT22;11110;52.386;16.940;2022-07-21T03:32:37;34.50;39.40
21891;DHT22;11110;52.386;16.940;2022-07-21T03:35:07;34.30;39.40
21891;DHT22;11110;52.386;16.940;2022-07-21T03:37:42;34.30;39.40
21891;DHT22;11110;52.386;16.940;2022-07-21T03:40:13;34.40;39.20
21891;DHT22;11110;52.386;16.940;2022-07-21T03:42:42;34.30;39.50
21891;DHT22;11110;52.386;16.940;2022-07-21T03:45:10;34.30;39.60
21891;DHT22;11110;52.386;16.940;2022-07-21T03:47:39;34.30;39.90
21891;DHT22;11110;52.386;16.940;2022-07-21T03:50:08;34.30;40.10
21891;DHT22;11110;52.386;16.940;2022-07-21T03:52:39;34.30;39.90
21891;DHT22;11110;52.386;16.940;2022-07-21T03:55:09;34.30;39.90
21891;DHT22;11110;52.386;16.940;2022-07-21T03:57:44;34.30;39.80
21891;DHT22;11110;52.386;16.940;2022-07-21T04:00:16;34.30;39.90
21891;DHT22;11110;52.386;16.940;2022-07-21T04:02:46;34.30;40.50
21891;DHT22;11110;52.386;16.940;2022-07-21T04:05:15;34.30;40.40
21891;DHT22;11110;52.386;16.940;2022-07-21T04:07:46;34.30;39.90
21891;DHT22;11110;52.386;16.940;2022-07-21T04:10:19;34.30;40.00
21891;DHT22;11110;52.386;16.940;2022-07-21T04:12:48;34.30;40.40
21891;DHT22;11110;52.386;16.940;2022-07-21T04:15:17;34.30;40.60
21891;DHT22;11110;52.386;16.940;2022-07-21T04:17:46;34.30;40.40
21891;DHT22;11110;52.386;16.940;2022-07-21T04:20:16;34.30;40.30
21891;DHT22;11110;52.386;16.940;2022-07-21T04:22:45;34.30;40.10
21891;DHT22;11110;52.386;16.940;2022-07-21T04:25:15;34.30;40.00
21891;DHT22;11110;52.386;16.940;2022-07-21T04:27:45;34.30;40.40
21891;DHT22;11110;52.386;16.940;2022-07-21T04:30:16;34.30;39.90
21891;DHT22;11110;52.386;16.940;2022-07-21T04:32:45;34.30;39.80
21891;DHT22;11110;52.386;16.940;2022-07-21T04:35:14;34.30;40.40
21891;DHT22;11110;52.386;16.940;2022-07-21T04:37:43;34.30;40.60
21891;DHT22;11110;52.386;16.940;2022-07-21T04:40:12;34.30;40.80
21891;DHT22;11110;52.386;16.940;2022-07-21T04:42:42;34.30;40.90
21891;DHT22;11110;52.386;16.940;2022-07-21T04:45:14;34.30;41.00
21891;DHT22;11110;52.386;16.940;2022-07-21T04:47:45;34.40;41.00
21891;DHT22;11110;52.386;16.940;2022-07-21T04:50:14;34.30;41.10
21891;DHT22;11110;52.386;16.940;2022-07-21T04:52:43;34.30;40.60
21891;DHT22;11110;52.386;16.940;2022-07-21T04:55:12;34.40;40.20
21891;DHT22;11110;52.386;16.940;2022-07-21T04:57:42;34.40;39.80
21891;DHT22;11110;52.386;16.940;2022-07-21T05:00:14;34.40;39.80
21891;DHT22;11110;52.386;16.940;2022-07-21T05:02:44;34.40;40.00
21891;DHT22;11110;52.386;16.940;2022-07-21T05:05:13;34.40;39.50
21891;DHT22;11110;52.386;16.940;2022-07-21T05:07:42;34.40;39.30
21891;DHT22;11110;52.386;16.940;2022-07-21T05:10:12;34.50;39.50
21891;DHT22;11110;52.386;16.940;2022-07-21T05:12:41;34.50;39.50
21891;DHT22;11110;52.386;16.940;2022-07-21T05:15:11;34.50;39.60
21891;DHT22;11110;52.386;16.940;2022-07-21T05:17:41;34.60;39.60
21891;DHT22;11110;52.386;16.940;2022-07-21T05:20:10;34.60;39.50
21891;DHT22;11110;52.386;16.940;2022-07-21T05:22:39;34.60;39.30
21891;DHT22;11110;52.386;16.940;2022-07-21T05:25:08;34.60;39.60
21891;DHT22;11110;52.386;16.940;2022-07-21T05:27:37;34.60;39.90
21891;DHT22;11110;52.386;16.940;2022-07-21T05:30:07;34.60;39.40
21891;DHT22;11110;52.386;16.940;2022-07-21T05:32:36;34.70;39.40
21891;DHT22;11110;52.386;16.940;2022-07-21T05:35:14;34.70;39.40
21891;DHT22;11110;52.386;16.940;2022-07-21T05:37:43;34.70;40.10
21891;DHT22;11110;52.386;16.940;2022-07-21T05:40:12;34.70;39.30
21891;DHT22;11110;52.386;16.940;2022-07-21T05:42:41;34.80;39.40
21891;DHT22;11110;52.386;16.940;2022-07-21T05:45:10;34.80;39.60
21891;DHT22;11110;52.386;16.940;2022-07-21T05:47:40;34.90;39.30
21891;DHT22;11110;52.386;16.940;2022-07-21T05:50:09;34.90;38.80
21891;DHT22;11110;52.386;16.940;2022-07-21T05:52:39;34.90;38.70
21891;DHT22;11110;52.386;16.940;2022-07-21T05:55:08;35.00;38.60
21891;DHT22;11110;52.386;16.940;2022-07-21T05:57:38;35.00;38.60
21891;DHT22;11110;52.386;16.940;2022-07-21T06:00:13;35.10;38.60
21891;DHT22;11110;52.386;16.940;2022-07-21T06:02:42;35.10;38.70
21891;DHT22;11110;52.386;16.940;2022-07-21T06:05:10;35.20;38.50
21891;DHT22;11110;52.386;16.940;2022-07-21T06:07:41;35.20;38.40
21891;DHT22;11110;52.386;16.940;2022-07-21T06:10:09;35.30;39.60
21891;DHT22;11110;52.386;16.940;2022-07-21T06:12:43;35.30;38.60
21891;DHT22;11110;52.386;16.940;2022-07-21T06:15:12;35.30;38.60
21891;DHT22;11110;52.386;16.940;2022-07-21T06:17:41;35.40;38.50
21891;DHT22;11110;52.386;16.940;2022-07-21T06:20:11;35.40;38.40
21891;DHT22;11110;52.386;16.940;2022-07-21T06:22:42;35.50;38.40
21891;DHT22;11110;52.386;16.940;2022-07-21T06:25:11;35.50;38.20
21891;DHT22;11110;52.386;16.940;2022-07-21T06:27:39;35.50;38.30
21891;DHT22;11110;52.386;16.940;2022-07-21T06:30:09;35.60;38.50
21891;DHT22;11110;52.386;16.940;2022-07-21T06:32:38;35.70;38.40
21891;DHT22;11110;52.386;16.940;2022-07-21T06:35:08;35.70;38.30
21891;DHT22;11110;52.386;16.940;2022-07-21T06:37:36;35.70;38.00
21891;DHT22;11110;52.386;16.940;2022-07-21T06:40:08;35.80;38.20
21891;DHT22;11110;52.386;16.940;2022-07-21T06:42:36;35.90;38.20
21891;DHT22;11110;52.386;16.940;2022-07-21T06:45:25;35.90;38.20
21891;DHT22;11110;52.386;16.940;2022-07-21T06:48:00;35.90;38.00
21891;DHT22;11110;52.386;16.940;2022-07-21T06:50:29;36.00;38.10
21891;DHT22;11110;52.386;16.940;2022-07-21T06:52:58;36.00;38.20
21891;DHT22;11110;52.386;16.940;2022-07-21T06:55:27;36.10;38.20
21891;DHT22;11110;52.386;16.940;2022-07-21T06:57:56;36.10;38.20
21891;DHT22;11110;52.386;16.940;2022-07-21T07:00:24;36.10;38.10
21891;DHT22;11110;52.386;16.940;2022-07-21T07:02:53;36.20;38.10
21891;DHT22;11110;52.386;16.940;2022-07-21T07:05:22;36.20;38.10
21891;DHT22;11110;52.386;16.940;2022-07-21T07:07:50;36.30;38.10
21891;DHT22;11110;52.386;16.940;2022-07-21T07:10:18;36.30;38.20
21891;DHT22;11110;52.386;16.940;2022-07-21T07:12:48;36.30;38.00
21891;DHT22;11110;52.386;16.940;2022-07-21T07:15:37;36.40;38.00
21891;DHT22;11110;52.386;16.940;2022-07-21T07:18:05;36.40;37.70
21891;DHT22;11110;52.386;16.940;2022-07-21T07:20:34;36.50;37.70
21891;DHT22;11110;52.386;16.940;2022-07-21T07:23:03;36.50;37.70
21891;DHT22;11110;52.386;16.940;2022-07-21T07:25:32;36.60;38.00
21891;DHT22;11110;52.386;16.940;2022-07-21T07:28:02;36.60;38.00
21891;DHT22;11110;52.386;16.940;2022-07-21T07:30:31;36.70;38.00
21891;DHT22;11110;52.386;16.940;2022-07-21T07:33:00;36.70;38.00
21891;DHT22;11110;52.386;16.940;2022-07-21T07:35:28;36.70;38.40
21891;DHT22;11110;52.386;16.940;2022-07-21T07:37:57;36.80;37.80
21891;DHT22;11110;52.386;16.940;2022-07-21T07:40:25;36.80;37.90
21891;DHT22;11110;52.386;16.940;2022-07-21T07:42:54;36.80;37.40
21891;DHT22;11110;52.386;16.940;2022-07-21T07:45:24;36.90;37.60
21891;DHT22;11110;52.386;16.940;2022-07-21T07:47:53;37.00;37.60
21891;DHT22;11110;52.386;16.940;2022-07-21T07:50:22;37.10;37.40
21891;DHT22;11110;52.386;16.940;2022-07-21T07:52:50;37.10;37.40
21891;DHT22;11110;52.386;16.940;2022-07-21T07:55:19;37.20;37.60
21891;DHT22;11110;52.386;16.940;2022-07-21T07:57:48;37.20;37.70
21891;DHT22;11110;52.386;16.940;2022-07-21T08:00:19;37.30;36.40
21891;DHT22;11110;52.386;16.940;2022-07-21T08:03:09;37.30;37.80
21891;DHT22;11110;52.386;16.940;2022-07-21T08:05:37;37.30;37.80
21891;DHT22;11110;52.386;16.940;2022-07-21T08:08:06;37.30;37.30
21891;DHT22;11110;52.386;16.940;2022-07-21T08:10:35;37.40;38.60
21891;DHT22;11110;52.386;16.940;2022-07-21T08:13:10;37.40;38.30
21891;DHT22;11110;52.386;16.940;2022-07-21T08:15:39;37.50;37.70
21891;DHT22;11110;52.386;16.940;2022-07-21T08:18:09;37.50;37.40
21891;DHT22;11110;52.386;16.940;2022-07-21T08:20:38;37.50;38.10
21891;DHT22;11110;52.386;16.940;2022-07-21T08:23:07;37.50;37.00
21891;DHT22;11110;52.386;16.940;2022-07-21T08:25:38;37.60;37.10
21891;DHT22;11110;52.386;16.940;2022-07-21T08:28:07;37.60;37.00
21891;DHT22;11110;52.386;16.940;2022-07-21T08:30:35;37.60;35.60
21891;DHT22;11110;52.386;16.940;2022-07-21T08:33:04;37.70;36.60
21891;DHT22;11110;52.386;16.940;2022-07-21T08:35:34;37.70;36.10
21891;DHT22;11110;52.386;16.940;2022-07-21T08:38:05;37.80;35.40
21891;DHT22;11110;52.386;16.940;2022-07-21T08:40:35;37.80;34.60
21891;DHT22;11110;52.386;16.940;2022-07-21T08:43:04;37.90;33.60
21891;DHT22;11110;52.386;16.940;2022-07-21T08:45:33;37.90;34.60
21891;DHT22;11110;52.386;16.940;2022-07-21T08:48:03;38.00;35.00
21891;DHT22;11110;52.386;16.940;2022-07-21T08:50:36;38.10;34.20
21891;DHT22;11110;52.386;16.940;2022-07-21T08:53:05;38.10;33.50
21891;DHT22;11110;52.386;16.940;2022-07-21T08:55:36;38.20;33.60
21891;DHT22;11110;52.386;16.940;2022-07-21T08:58:07;38.20;32.70
21891;DHT22;11110;52.386;16.940;2022-07-21T09:00:37;38.30;32.70
21891;DHT22;11110;52.386;16.940;2022-07-21T09:03:12;38.30;32.80
21891;DHT22;11110;52.386;16.940;2022-07-21T09:05:57;38.40;32.80
21891;DHT22;11110;52.386;16.940;2022-07-21T09:08:29;38.50;33.50
21891;DHT22;11110;52.386;16.940;2022-07-21T09:11:13;38.60;33.80
21891;DHT22;11110;52.386;16.940;2022-07-21T09:13:44;38.70;33.20
21891;DHT22;11110;52.386;16.940;2022-07-21T09:16:14;38.60;33.60
21891;DHT22;11110;52.386;16.940;2022-07-21T09:18:47;38.70;33.40
21891;DHT22;11110;52.386;16.940;2022-07-21T09:21:19;38.70;32.30
21891;DHT22;11110;52.386;16.940;2022-07-21T09:23:48;38.80;33.00
21891;DHT22;11110;52.386;16.940;2022-07-21T09:26:16;38.70;32.70
21891;DHT22;11110;52.386;16.940;2022-07-21T09:28:46;38.80;34.00
21891;DHT22;11110;52.386;16.940;2022-07-21T09:31:15;38.90;33.80
21891;DHT22;11110;52.386;16.940;2022-07-21T09:33:46;39.00;32.00
21891;DHT22;11110;52.386;16.940;2022-07-21T09:36:16;39.00;31.70
21891;DHT22;11110;52.386;16.940;2022-07-21T09:38:51;39.10;32.20
21891;DHT22;11110;52.386;16.940;2022-07-21T09:41:21;39.20;32.60
21891;DHT22;11110;52.386;16.940;2022-07-21T09:43:52;39.20;30.80
21891;DHT22;11110;52.386;16.940;2022-07-21T09:46:23;39.20;31.50
21891;DHT22;11110;52.386;16.940;2022-07-21T09:48:55;39.30;30.80
21891;DHT22;11110;52.386;16.940;2022-07-21T09:51:45;39.40;31.60
21891;DHT22;11110;52.386;16.940;2022-07-21T09:54:17;39.40;30.80
21891;DHT22;11110;52.386;16.940;2022-07-21T09:56:45;39.50;30.50
21891;DHT22;11110;52.386;16.940;2022-07-21T09:59:15;39.60;31.60
21891;DHT22;11110;52.386;16.940;2022-07-21T10:01:44;39.60;30.30
21891;DHT22;11110;52.386;16.940;2022-07-21T10:04:15;39.70;31.60
21891;DHT22;11110;52.386;16.940;2022-07-21T10:06:47;39.70;31.60
21891;DHT22;11110;52.386;16.940;2022-07-21T10:09:18;39.80;30.60
21891;DHT22;11110;52.386;16.940;2022-07-21T10:11:46;39.80;30.70
21891;DHT22;11110;52.386;16.940;2022-07-21T10:14:15;39.80;30.10
21891;DHT22;11110;52.386;16.940;2022-07-21T10:16:44;39.90;31.60
21891;DHT22;11110;52.386;16.940;2022-07-21T10:19:24;39.90;31.80
21891;DHT22;11110;52.386;16.940;2022-07-21T10:22:01;40.00;32.00
21891;DHT22;11110;52.386;16.940;2022-07-21T10:24:34;40.00;29.10
21891;DHT22;11110;52.386;16.940;2022-07-21T10:27:05;40.00;29.00
21891;DHT22;11110;52.386;16.940;2022-07-21T10:30:04;40.00;29.00
21891;DHT22;11110;52.386;16.940;2022-07-21T10:32:34;40.00;29.50
21891;DHT22;11110;52.386;16.940;2022-07-21T10:35:26;40.10;29.80
21891;DHT22;11110;52.386;16.940;2022-07-21T10:37:56;40.20;29.60
21891;DHT22;11110;52.386;16.940;2022-07-21T10:40:41;40.10;29.60
21891;DHT22;11110;52.386;16.940;2022-07-21T10:43:35;40.20;29.60
21891;DHT22;11110;52.386;16.940;2022-07-21T10:46:35;40.20;29.50
21891;DHT22;11110;52.386;16.940;2022-07-21T10:49:06;40.20;28.60
21891;DHT22;11110;52.386;16.940;2022-07-21T10:51:37;40.20;29.40
21891;DHT22;11110;52.386;16.940;2022-07-21T10:54:20;40.10;29.40
21891;DHT22;11110;52.386;16.940;2022-07-21T10:57:26;40.20;29.40
21891;DHT22;11110;52.386;16.940;2022-07-21T11:00:18;40.20;28.60
21891;DHT22;11110;52.386;16.940;2022-07-21T11:02:51;40.20;28.90
21891;DHT22;11110;52.386;16.940;2022-07-21T11:05:21;40.20;28.90
21891;DHT22;11110;52.386;16.940;2022-07-21T11:08:14;40.20;29.00
21891;DHT22;11110;52.386;16.940;2022-07-21T11:10:44;40.20;29.10
21891;DHT22;11110;52.386;16.940;2022-07-21T11:13:14;40.20;28.90
21891;DHT22;11110;52.386;16.940;2022-07-21T11:15:45;40.20;28.20
21891;DHT22;11110;52.386;16.940;2022-07-21T11:18:19;40.30;29.60
21891;DHT22;11110;52.386;16.940;2022-07-21T11:21:07;40.40;29.10
21891;DHT22;11110;52.386;16.940;2022-07-21T11:23:38;40.40;28.90
21891;DHT22;11110;52.386;16.940;2022-07-21T11:26:07;40.40;28.70
21891;DHT22;11110;52.386;16.940;2022-07-21T11:28:36;40.40;28.90
21891;DHT22;11110;52.386;16.940;2022-07-21T11:31:12;40.50;29.10
21891;DHT22;11110;52.386;16.940;2022-07-21T11:33:45;40.50;28.90
21891;DHT22;11110;52.386;16.940;2022-07-21T11:36:25;40.60;29.10
21891;DHT22;11110;52.386;16.940;2022-07-21T11:38:59;40.70;29.20
21891;DHT22;11110;52.386;16.940;2022-07-21T11:41:27;40.60;29.30
21891;DHT22;11110;52.386;16.940;2022-07-21T11:43:56;40.60;29.30
21891;DHT22;11110;52.386;16.940;2022-07-21T11:46:24;40.60;27.70
21891;DHT22;11110;52.386;16.940;2022-07-21T11:49:05;40.70;29.20
21891;DHT22;11110;52.386;16.940;2022-07-21T11:51:34;40.80;29.50
21891;DHT22;11110;52.386;16.940;2022-07-21T11:54:03;40.90;29.10
21891;DHT22;11110;52.386;16.940;2022-07-21T11:56:38;40.90;29.00
21891;DHT22;11110;52.386;16.940;2022-07-21T11:59:10;41.00;28.90
21891;DHT22;11110;52.386;16.940;2022-07-21T12:01:55;41.00;28.90
21891;DHT22;11110;52.386;16.940;2022-07-21T12:04:29;41.10;28.60
21891;DHT22;11110;52.386;16.940;2022-07-21T12:07:00;41.20;28.90
21891;DHT22;11110;52.386;16.940;2022-07-21T12:09:29;41.20;29.00
21891;DHT22;11110;52.386;16.940;2022-07-21T12:11:58;41.20;28.70
21891;DHT22;11110;52.386;16.940;2022-07-21T12:14:45;41.30;28.10
21891;DHT22;11110;52.386;16.940;2022-07-21T12:17:14;41.40;28.20
21891;DHT22;11110;52.386;16.940;2022-07-21T12:19:44;41.40;28.90
21891;DHT22;11110;52.386;16.940;2022-07-21T12:22:13;41.40;29.00
21891;DHT22;11110;52.386;16.940;2022-07-21T12:24:53;41.40;28.70
21891;DHT22;11110;52.386;16.940;2022-07-21T12:27:22;41.50;28.40
21891;DHT22;11110;52.386;16.940;2022-07-21T12:29:50;41.40;28.60
21891;DHT22;11110;52.386;16.940;2022-07-21T12:32:39;41.50;28.80
21891;DHT22;11110;52.386;16.940;2022-07-21T12:35:26;41.60;28.80
21891;DHT22;11110;52.386;16.940;2022-07-21T12:38:02;41.60;28.10
21891;DHT22;11110;52.386;16.940;2022-07-21T12:40:33;41.60;27.50
21891;DHT22;11110;52.386;16.940;2022-07-21T12:43:07;41.60;28.40
21891;DHT22;11110;52.386;16.940;2022-07-21T12:45:47;41.70;28.50
21891;DHT22;11110;52.386;16.940;2022-07-21T12:48:17;41.70;28.30
21891;DHT22;11110;52.386;16.940;2022-07-21T12:51:15;41.70;28.10
21891;DHT22;11110;52.386;16.940;2022-07-21T12:53:49;41.70;27.00
21891;DHT22;11110;52.386;16.940;2022-07-21T12:56:19;41.70;27.80
21891;DHT22;11110;52.386;16.940;2022-07-21T12:58:49;41.80;28.30
21891;DHT22;11110;52.386;16.940;2022-07-21T13:01:20;41.90;27.40
21891;DHT22;11110;52.386;16.940;2022-07-21T13:03:48;41.90;26.90
21891;DHT22;11110;52.386;16.940;2022-07-21T13:06:18;42.00;27.20
21891;DHT22;11110;52.386;16.940;2022-07-21T13:08:48;42.10;27.10
21891;DHT22;11110;52.386;16.940;2022-07-21T13:11:19;42.20;27.30
21891;DHT22;11110;52.386;16.940;2022-07-21T13:13:49;42.20;27.10
21891;DHT22;11110;52.386;16.940;2022-07-21T13:16:18;42.20;25.70
21891;DHT22;11110;52.386;16.940;2022-07-21T13:18:50;42.20;26.40
21891;DHT22;11110;52.386;16.940;2022-07-21T13:21:21;42.20;25.10
21891;DHT22;11110;52.386;16.940;2022-07-21T13:23:49;42.30;25.80
21891;DHT22;11110;52.386;16.940;2022-07-21T13:26:17;42.40;25.40
21891;DHT22;11110;52.386;16.940;2022-07-21T13:28:46;42.50;25.60
21891;DHT22;11110;52.386;16.940;2022-07-21T13:31:14;42.60;25.30
21891;DHT22;11110;52.386;16.940;2022-07-21T13:33:43;42.70;25.60
21891;DHT22;11110;52.386;16.940;2022-07-21T13:36:12;42.80;25.60
21891;DHT22;11110;52.386;16.940;2022-07-21T13:38:43;42.90;25.50
21891;DHT22;11110;52.386;16.940;2022-07-21T13:41:11;43.00;25.00
21891;DHT22;11110;52.386;16.940;2022-07-21T13:44:01;43.10;25.20
21891;DHT22;11110;52.386;16.940;2022-07-21T13:46:30;43.20;24.80
21891;DHT22;11110;52.386;16.940;2022-07-21T13:48:58;43.30;25.30
21891;DHT22;11110;52.386;16.940;2022-07-21T13:51:26;43.40;24.20
21891;DHT22;11110;52.386;16.940;2022-07-21T13:53:56;43.50;25.50
21891;DHT22;11110;52.386;16.940;2022-07-21T13:56:25;43.60;24.80
21891;DHT22;11110;52.386;16.940;2022-07-21T13:58:54;43.60;24.90
21891;DHT22;11110;52.386;16.940;2022-07-21T14:01:23;43.70;24.80
21891;DHT22;11110;52.386;16.940;2022-07-21T14:03:51;43.80;24.40
21891;DHT22;11110;52.386;16.940;2022-07-21T14:06:20;43.80;24.60
21891;DHT22;11110;52.386;16.940;2022-07-21T14:08:49;43.90;24.00
21891;DHT22;11110;52.386;16.940;2022-07-21T14:11:18;44.00;24.30
21891;DHT22;11110;52.386;16.940;2022-07-21T14:13:50;44.00;24.70
21891;DHT22;11110;52.386;16.940;2022-07-21T14:16:19;44.10;24.50
21891;DHT22;11110;52.386;16.940;2022-07-21T14:18:47;44.20;24.00
21891;DHT22;11110;52.386;16.940;2022-07-21T14:21:16;44.20;24.40
21891;DHT22;11110;52.386;16.940;2022-07-21T14:23:45;44.30;24.70
21891;DHT22;11110;52.386;16.940;2022-07-21T14:26:13;44.40;24.70
21891;DHT22;11110;52.386;16.940;2022-07-21T14:28:43;44.40;24.50
21891;DHT22;11110;52.386;16.940;2022-07-21T14:31:11;44.50;23.80
21891;DHT22;11110;52.386;16.940;2022-07-21T14:33:40;44.60;24.00
21891;DHT22;11110;52.386;16.940;2022-07-21T14:36:09;44.60;24.10
21891;DHT22;11110;52.386;16.940;2022-07-21T14:38:37;44.70;23.50
21891;DHT22;11110;52.386;16.940;2022-07-21T14:41:05;44.70;23.60
21891;DHT22;11110;52.386;16.940;2022-07-21T14:43:34;44.70;23.90
21891;DHT22;11110;52.386;16.940;2022-07-21T14:46:03;44.80;23.80
21891;DHT22;11110;52.386;16.940;2022-07-21T14:48:32;44.80;24.40
21891;DHT22;11110;52.386;16.940;2022-07-21T14:51:00;44.90;24.40
21891;DHT22;11110;52.386;16.940;2022-07-21T14:53:29;44.90;23.20
21891;DHT22;11110;52.386;16.940;2022-07-21T14:55:57;45.00;24.30
21891;DHT22;11110;52.386;16.940;2022-07-21T14:58:26;45.00;24.80
21891;DHT22;11110;52.386;16.940;2022-07-21T15:00:54;45.10;23.80
21891;DHT22;11110;52.386;16.940;2022-07-21T15:03:24;45.10;24.90
21891;DHT22;11110;52.386;16.940;2022-07-21T15:05:52;45.10;24.60
21891;DHT22;11110;52.386;16.940;2022-07-21T15:08:21;45.10;25.00
21891;DHT22;11110;52.386;16.940;2022-07-21T15:10:49;45.10;24.70
21891;DHT22;11110;52.386;16.940;2022-07-21T15:13:17;45.10;24.60
21891;DHT22;11110;52.386;16.940;2022-07-21T15:15:46;45.10;25.10
21891;DHT22;11110;52.386;16.940;2022-07-21T15:18:14;45.10;25.20
21891;DHT22;11110;52.386;16.940;2022-07-21T15:20:45;45.10;24.90
21891;DHT22;11110;52.386;16.940;2022-07-21T15:23:14;45.20;24.30
21891;DHT22;11110;52.386;16.940;2022-07-21T15:25:42;45.20;24.70
21891;DHT22;11110;52.386;16.940;2022-07-21T15:28:10;45.20;24.20
21891;DHT22;11110;52.386;16.940;2022-07-21T15:30:39;45.20;24.30
21891;DHT22;11110;52.386;16.940;2022-07-21T15:33:07;45.30;24.10
21891;DHT22;11110;52.386;16.940;2022-07-21T15:35:35;45.30;24.20
21891;DHT22;11110;52.386;16.940;2022-07-21T15:38:05;45.30;24.50